sensor_id;sensor_type;location;lat;lon;timestamp;temperature;humidity
54202;DHT22;40108;53.152;5.844;2023-06-04T00:00:36;10.90;86.10
54202;DHT22;40108;53.152;5.844;2023-06-04T00:03:02;10.90;86.00
54202;DHT22;40108;53.152;5.844;2023-06-04T00:05:27;11.00;86.60
54202;DHT22;40108;53.152;5.844;2023-06-04T00:07:53;10.90;86.80
54202;DHT22;40108;53.152;5.844;2023-06-04T00:10:23;10.90;86.30
54202;DHT22;40108;53.152;5.844;2023-06-04T00:15:52;11.00;86.50
54202;DHT22;40108;53.152;5.844;2023-06-04T00:18:18;10.90;86.40
54202;DHT22;40108;53.152;5.844;2023-06-04T00:20:44;10.90;87.00
54202;DHT22;40108;53.152;5.844;2023-06-04T00:23:09;10.90;86.60
54202;DHT22;40108;53.152;5.844;2023-06-04T00:25:35;10.90;86.80
54202;DHT22;40108;53.152;5.844;2023-06-04T00:28:01;10.80;87.00
54202;DHT22;40108;53.152;5.844;2023-06-04T00:30:27;10.80;87.50
54202;DHT22;40108;53.152;5.844;2023-06-04T00:32:53;10.80;87.60
54202;DHT22;40108;53.152;5.844;2023-06-04T00:35:19;10.70;87.30
54202;DHT22;40108;53.152;5.844;2023-06-04T00:37:46;10.70;87.50
54202;DHT22;40108;53.152;5.844;2023-06-04T00:40:12;10.70;87.70
54202;DHT22;40108;53.152;5.844;2023-06-04T00:42:37;10.70;88.10
54202;DHT22;40108;53.152;5.844;2023-06-04T00:45:04;10.70;87.90
54202;DHT22;40108;53.152;5.844;2023-06-04T00:47:31;10.70;87.90
54202;DHT22;40108;53.152;5.844;2023-06-04T00:50:16;10.70;88.20
54202;DHT22;40108;53.152;5.844;2023-06-04T00:52:42;10.70;88.20
54202;DHT22;40108;53.152;5.844;2023-06-04T00:55:08;10.70;88.00
54202;DHT22;40108;53.152;5.844;2023-06-04T00:57:37;10.70;88.10
54202;DHT22;40108;53.152;5.844;2023-06-04T01:03:47;10.60;88.30
54202;DHT22;40108;53.152;5.844;2023-06-04T01:06:27;10.60;88.40
54202;DHT22;40108;53.152;5.844;2023-06-04T01:08:54;10.60;87.80
54202;DHT22;40108;53.152;5.844;2023-06-04T01:11:37;10.60;88.20
54202;DHT22;40108;53.152;5.844;2023-06-04T01:14:05;10.60;88.40
54202;DHT22;40108;53.152;5.844;2023-06-04T01:26:10;10.60;89.40
54202;DHT22;40108;53.152;5.844;2023-06-04T01:28:36;10.60;89.60
54202;DHT22;40108;53.152;5.844;2023-06-04T01:31:04;10.60;89.50
54202;DHT22;40108;53.152;5.844;2023-06-04T01:33:33;10.60;89.20
54202;DHT22;40108;53.152;5.844;2023-06-04T01:35:59;10.60;89.30
54202;DHT22;40108;53.152;5.844;2023-06-04T01:42:07;10.60;89.20
54202;DHT22;40108;53.152;5.844;2023-06-04T01:44:33;10.60;89.50
54202;DHT22;40108;53.152;5.844;2023-06-04T01:46:59;10.60;89.30
54202;DHT22;40108;53.152;5.844;2023-06-04T01:49:25;10.60;89.20
54202;DHT22;40108;53.152;5.844;2023-06-04T01:51:59;10.60;89.20
54202;DHT22;40108;53.152;5.844;2023-06-04T01:57:59;10.60;89.10
54202;DHT22;40108;53.152;5.844;2023-06-04T02:00:26;10.60;89.20
54202;DHT22;40108;53.152;5.844;2023-06-04T02:02:52;10.60;89.20
54202;DHT22;40108;53.152;5.844;2023-06-04T02:05:18;10.60;88.90
54202;DHT22;40108;53.152;5.844;2023-06-04T02:07:45;10.50;88.80
54202;DHT22;40108;53.152;5.844;2023-06-04T02:10:16;10.50;88.90
54202;DHT22;40108;53.152;5.844;2023-06-04T02:13:00;10.50;89.00
54202;DHT22;40108;53.152;5.844;2023-06-04T02:19:24;10.50;89.00
54202;DHT22;40108;53.152;5.844;2023-06-04T02:25:36;10.50;88.90
54202;DHT22;40108;53.152;5.844;2023-06-04T02:28:02;10.50;89.00
54202;DHT22;40108;53.152;5.844;2023-06-04T02:30:28;10.40;89.10
54202;DHT22;40108;53.152;5.844;2023-06-04T02:32:59;10.40;89.30
54202;DHT22;40108;53.152;5.844;2023-06-04T02:39:07;10.40;89.80
54202;DHT22;40108;53.152;5.844;2023-06-04T02:41:32;10.40;90.20
54202;DHT22;40108;53.152;5.844;2023-06-04T02:43:58;10.30;90.40
54202;DHT22;40108;53.152;5.844;2023-06-04T02:46:55;10.30;90.40
54202;DHT22;40108;53.152;5.844;2023-06-04T02:49:20;10.30;90.60
54202;DHT22;40108;53.152;5.844;2023-06-04T02:51:47;10.30;90.70
54202;DHT22;40108;53.152;5.844;2023-06-04T02:54:12;10.30;90.50
54202;DHT22;40108;53.152;5.844;2023-06-04T02:56:38;10.20;90.50
54202;DHT22;40108;53.152;5.844;2023-06-04T02:59:05;10.20;90.40
54202;DHT22;40108;53.152;5.844;2023-06-04T03:01:31;10.20;90.50
54202;DHT22;40108;53.152;5.844;2023-06-04T03:03:57;10.20;90.50
54202;DHT22;40108;53.152;5.844;2023-06-04T03:06:29;10.20;90.60
54202;DHT22;40108;53.152;5.844;2023-06-04T03:12:55;10.20;91.10
54202;DHT22;40108;53.152;5.844;2023-06-04T03:19:11;10.20;91.30
54202;DHT22;40108;53.152;5.844;2023-06-04T03:28:28;10.20;91.00
54202;DHT22;40108;53.152;5.844;2023-06-04T03:30:54;10.20;91.20
54202;DHT22;40108;53.152;5.844;2023-06-04T03:33:59;10.20;91.40
54202;DHT22;40108;53.152;5.844;2023-06-04T03:40:33;10.20;91.80
54202;DHT22;40108;53.152;5.844;2023-06-04T03:50:35;10.20;91.90
54202;DHT22;40108;53.152;5.844;2023-06-04T03:53:01;10.20;91.70
54202;DHT22;40108;53.152;5.844;2023-06-04T03:56:08;10.20;91.60
54202;DHT22;40108;53.152;5.844;2023-06-04T04:02:34;10.20;91.90
54202;DHT22;40108;53.152;5.844;2023-06-04T04:08:43;10.20;91.70
54202;DHT22;40108;53.152;5.844;2023-06-04T04:11:10;10.10;91.80
54202;DHT22;40108;53.152;5.844;2023-06-04T04:13:36;10.20;91.90
54202;DHT22;40108;53.152;5.844;2023-06-04T04:16:02;10.20;91.90
54202;DHT22;40108;53.152;5.844;2023-06-04T04:18:28;10.20;91.90
54202;DHT22;40108;53.152;5.844;2023-06-04T04:20:53;10.20;91.90
54202;DHT22;40108;53.152;5.844;2023-06-04T04:23:21;10.20;92.20
54202;DHT22;40108;53.152;5.844;2023-06-04T04:25:46;10.30;92.20
54202;DHT22;40108;53.152;5.844;2023-06-04T04:28:14;10.30;92.20
54202;DHT22;40108;53.152;5.844;2023-06-04T04:30:40;10.40;92.60
54202;DHT22;40108;53.152;5.844;2023-06-04T04:33:06;10.40;92.60
54202;DHT22;40108;53.152;5.844;2023-06-04T04:39:29;10.50;92.60
54202;DHT22;40108;53.152;5.844;2023-06-04T04:45:36;10.60;92.80
54202;DHT22;40108;53.152;5.844;2023-06-04T04:52:13;10.70;92.80
54202;DHT22;40108;53.152;5.844;2023-06-04T04:54:39;10.80;93.00
54202;DHT22;40108;53.152;5.844;2023-06-04T05:04:09;11.10;92.80
54202;DHT22;40108;53.152;5.844;2023-06-04T05:10:45;11.30;92.80
54202;DHT22;40108;53.152;5.844;2023-06-04T05:16:55;11.50;92.70
54202;DHT22;40108;53.152;5.844;2023-06-04T05:23:41;11.70;92.80
54202;DHT22;40108;53.152;5.844;2023-06-04T05:29:34;11.90;92.50
54202;DHT22;40108;53.152;5.844;2023-06-04T05:32:00;12.00;92.30
54202;DHT22;40108;53.152;5.844;2023-06-04T05:34:26;12.10;92.20
54202;DHT22;40108;53.152;5.844;2023-06-04T05:37:01;12.10;92.20
54202;DHT22;40108;53.152;5.844;2023-06-04T05:43:15;12.30;92.10
54202;DHT22;40108;53.152;5.844;2023-06-04T05:49:22;12.50;91.90
54202;DHT22;40108;53.152;5.844;2023-06-04T05:56:24;12.70;91.60
54202;DHT22;40108;53.152;5.844;2023-06-04T05:58:52;12.80;91.40
54202;DHT22;40108;53.152;5.844;2023-06-04T06:01:18;12.90;91.20
54202;DHT22;40108;53.152;5.844;2023-06-04T06:03:43;12.90;90.90
54202;DHT22;40108;53.152;5.844;2023-06-04T06:06:10;13.10;90.80
54202;DHT22;40108;53.152;5.844;2023-06-04T06:12:03;13.20;90.30
54202;DHT22;40108;53.152;5.844;2023-06-04T06:14:29;13.30;89.90
54202;DHT22;40108;53.152;5.844;2023-06-04T06:16:54;13.40;89.80
54202;DHT22;40108;53.152;5.844;2023-06-04T06:19:20;13.50;89.40
54202;DHT22;40108;53.152;5.844;2023-06-04T06:21:46;13.50;89.00
54202;DHT22;40108;53.152;5.844;2023-06-04T06:24:12;13.60;88.60
54202;DHT22;40108;53.152;5.844;2023-06-04T06:26:38;13.60;88.30
54202;DHT22;40108;53.152;5.844;2023-06-04T06:29:04;13.70;87.80
54202;DHT22;40108;53.152;5.844;2023-06-04T06:31:29;13.80;87.70
54202;DHT22;40108;53.152;5.844;2023-06-04T06:33:55;13.90;87.40
54202;DHT22;40108;53.152;5.844;2023-06-04T06:36:21;14.10;86.80
54202;DHT22;40108;53.152;5.844;2023-06-04T06:38:47;14.20;86.50
54202;DHT22;40108;53.152;5.844;2023-06-04T06:41:13;14.60;86.10
54202;DHT22;40108;53.152;5.844;2023-06-04T06:43:39;14.80;85.30
54202;DHT22;40108;53.152;5.844;2023-06-04T06:46:04;15.10;84.00
54202;DHT22;40108;53.152;5.844;2023-06-04T06:48:30;15.30;83.50
54202;DHT22;40108;53.152;5.844;2023-06-04T06:50:56;15.50;81.10
54202;DHT22;40108;53.152;5.844;2023-06-04T06:53:22;15.70;80.90
54202;DHT22;40108;53.152;5.844;2023-06-04T06:55:47;15.90;81.30
54202;DHT22;40108;53.152;5.844;2023-06-04T07:01:35;16.20;79.10
54202;DHT22;40108;53.152;5.844;2023-06-04T07:04:04;16.30;77.60
54202;DHT22;40108;53.152;5.844;2023-06-04T07:06:29;16.40;76.40
54202;DHT22;40108;53.152;5.844;2023-06-04T07:08:55;16.60;74.50
54202;DHT22;40108;53.152;5.844;2023-06-04T07:11:21;16.60;74.30
54202;DHT22;40108;53.152;5.844;2023-06-04T07:13:47;16.60;73.20
54202;DHT22;40108;53.152;5.844;2023-06-04T07:16:13;16.70;72.60
54202;DHT22;40108;53.152;5.844;2023-06-04T07:18:38;16.80;72.10
54202;DHT22;40108;53.152;5.844;2023-06-04T07:21:04;17.00;73.00
54202;DHT22;40108;53.152;5.844;2023-06-04T07:23:30;17.10;72.10
54202;DHT22;40108;53.152;5.844;2023-06-04T07:25:56;17.20;71.20
54202;DHT22;40108;53.152;5.844;2023-06-04T07:28:41;17.30;70.30
54202;DHT22;40108;53.152;5.844;2023-06-04T07:31:07;17.40;69.80
54202;DHT22;40108;53.152;5.844;2023-06-04T07:33:33;17.50;70.50
54202;DHT22;40108;53.152;5.844;2023-06-04T07:35:59;17.60;69.10
54202;DHT22;40108;53.152;5.844;2023-06-04T07:38:25;17.60;68.90
54202;DHT22;40108;53.152;5.844;2023-06-04T07:40:51;17.80;68.80
54202;DHT22;40108;53.152;5.844;2023-06-04T07:43:17;18.00;68.80
54202;DHT22;40108;53.152;5.844;2023-06-04T07:45:42;18.10;66.00
54202;DHT22;40108;53.152;5.844;2023-06-04T07:48:14;18.20;66.80
54202;DHT22;40108;53.152;5.844;2023-06-04T07:50:40;18.30;66.10
54202;DHT22;40108;53.152;5.844;2023-06-04T08:01:12;18.70;65.40
54202;DHT22;40108;53.152;5.844;2023-06-04T08:07:25;19.00;63.70
54202;DHT22;40108;53.152;5.844;2023-06-04T08:21:29;19.30;63.30
54202;DHT22;40108;53.152;5.844;2023-06-04T08:35:14;19.90;62.70
54202;DHT22;40108;53.152;5.844;2023-06-04T08:37:42;19.90;59.20
54202;DHT22;40108;53.152;5.844;2023-06-04T08:43:25;19.90;59.00
54202;DHT22;40108;53.152;5.844;2023-06-04T08:45:58;20.10;59.30
54202;DHT22;40108;53.152;5.844;2023-06-04T09:00:19;20.30;60.00
54202;DHT22;40108;53.152;5.844;2023-06-04T09:02:46;20.30;57.10
54202;DHT22;40108;53.152;5.844;2023-06-04T09:05:19;20.30;57.40
54202;DHT22;40108;53.152;5.844;2023-06-04T09:19:55;20.40;55.50
54202;DHT22;40108;53.152;5.844;2023-06-04T09:22:49;20.50;53.90
54202;DHT22;40108;53.152;5.844;2023-06-04T09:28:59;20.40;53.80
54202;DHT22;40108;53.152;5.844;2023-06-04T09:42:01;20.60;53.50
54202;DHT22;40108;53.152;5.844;2023-06-04T09:48:20;20.70;52.20
54202;DHT22;40108;53.152;5.844;2023-06-04T10:02:37;20.90;50.90
54202;DHT22;40108;53.152;5.844;2023-06-04T10:08:52;20.90;53.20
54202;DHT22;40108;53.152;5.844;2023-06-04T10:11:23;21.10;53.90
54202;DHT22;40108;53.152;5.844;2023-06-04T10:14:30;21.20;51.00
54202;DHT22;40108;53.152;5.844;2023-06-04T10:21:26;21.40;50.30
54202;DHT22;40108;53.152;5.844;2023-06-04T10:27:38;21.60;50.90
54202;DHT22;40108;53.152;5.844;2023-06-04T10:44:54;21.60;51.00
54202;DHT22;40108;53.152;5.844;2023-06-04T10:51:16;21.60;49.00
54202;DHT22;40108;53.152;5.844;2023-06-04T11:28:16;22.30;47.20
54202;DHT22;40108;53.152;5.844;2023-06-04T11:35:31;22.10;47.80
54202;DHT22;40108;53.152;5.844;2023-06-04T11:37:58;22.20;47.80
54202;DHT22;40108;53.152;5.844;2023-06-04T11:40:24;22.30;47.60
54202;DHT22;40108;53.152;5.844;2023-06-04T11:42:56;22.40;46.80
54202;DHT22;40108;53.152;5.844;2023-06-04T11:45:22;22.40;46.20
54202;DHT22;40108;53.152;5.844;2023-06-04T11:47:55;22.40;46.90
54202;DHT22;40108;53.152;5.844;2023-06-04T11:50:23;22.30;47.40
54202;DHT22;40108;53.152;5.844;2023-06-04T11:52:52;22.30;47.40
54202;DHT22;40108;53.152;5.844;2023-06-04T11:55:18;22.20;47.00
54202;DHT22;40108;53.152;5.844;2023-06-04T12:04:46;21.80;47.20
54202;DHT22;40108;53.152;5.844;2023-06-04T12:07:20;21.70;50.40
54202;DHT22;40108;53.152;5.844;2023-06-04T12:36:10;21.40;51.00
54202;DHT22;40108;53.152;5.844;2023-06-04T12:45:59;20.70;56.10
54202;DHT22;40108;53.152;5.844;2023-06-04T12:49:01;20.50;55.00
54202;DHT22;40108;53.152;5.844;2023-06-04T12:51:41;20.50;57.30
54202;DHT22;40108;53.152;5.844;2023-06-04T12:54:33;20.50;58.80
54202;DHT22;40108;53.152;5.844;2023-06-04T12:57:10;20.30;59.00
54202;DHT22;40108;53.152;5.844;2023-06-04T13:00:07;20.10;57.50
54202;DHT22;40108;53.152;5.844;2023-06-04T13:03:22;20.00;59.10
54202;DHT22;40108;53.152;5.844;2023-06-04T13:09:15;19.80;58.90
54202;DHT22;40108;53.152;5.844;2023-06-04T13:12:03;19.90;60.30
54202;DHT22;40108;53.152;5.844;2023-06-04T13:14:55;19.80;61.30
54202;DHT22;40108;53.152;5.844;2023-06-04T13:17:42;19.70;59.60
54202;DHT22;40108;53.152;5.844;2023-06-04T13:20:13;19.60;60.00
54202;DHT22;40108;53.152;5.844;2023-06-04T13:22:57;19.60;62.40
54202;DHT22;40108;53.152;5.844;2023-06-04T13:28:56;19.50;59.50
54202;DHT22;40108;53.152;5.844;2023-06-04T13:31:29;19.30;61.90
54202;DHT22;40108;53.152;5.844;2023-06-04T13:34:07;19.30;61.80
54202;DHT22;40108;53.152;5.844;2023-06-04T13:37:10;19.20;61.50
54202;DHT22;40108;53.152;5.844;2023-06-04T13:40:01;19.10;62.10
54202;DHT22;40108;53.152;5.844;2023-06-04T13:42:48;19.10;62.50
54202;DHT22;40108;53.152;5.844;2023-06-04T13:46:10;18.90;61.70
54202;DHT22;40108;53.152;5.844;2023-06-04T13:53:17;18.70;62.60
54202;DHT22;40108;53.152;5.844;2023-06-04T13:56:21;18.70;62.70
54202;DHT22;40108;53.152;5.844;2023-06-04T14:02:39;18.60;62.20
54202;DHT22;40108;53.152;5.844;2023-06-04T14:05:36;18.50;62.60
54202;DHT22;40108;53.152;5.844;2023-06-04T14:08:07;18.30;63.30
54202;DHT22;40108;53.152;5.844;2023-06-04T14:10:49;18.10;62.60
54202;DHT22;40108;53.152;5.844;2023-06-04T14:16:28;17.90;63.10
54202;DHT22;40108;53.152;5.844;2023-06-04T14:19:53;17.70;63.00
54202;DHT22;40108;53.152;5.844;2023-06-04T14:34:04;17.60;64.50
54202;DHT22;40108;53.152;5.844;2023-06-04T14:37:00;17.60;64.90
54202;DHT22;40108;53.152;5.844;2023-06-04T14:40:10;17.60;64.70
54202;DHT22;40108;53.152;5.844;2023-06-04T14:42:40;17.60;65.30
54202;DHT22;40108;53.152;5.844;2023-06-04T14:45:19;17.70;64.50
54202;DHT22;40108;53.152;5.844;2023-06-04T14:47:47;17.60;64.40
54202;DHT22;40108;53.152;5.844;2023-06-04T14:50:22;17.60;65.00
54202;DHT22;40108;53.152;5.844;2023-06-04T15:00:39;17.50;63.70
54202;DHT22;40108;53.152;5.844;2023-06-04T15:07:02;17.20;64.40
54202;DHT22;40108;53.152;5.844;2023-06-04T15:13:17;17.10;65.80
54202;DHT22;40108;53.152;5.844;2023-06-04T15:15:43;17.10;65.90
54202;DHT22;40108;53.152;5.844;2023-06-04T15:18:08;17.10;66.60
54202;DHT22;40108;53.152;5.844;2023-06-04T15:34:54;16.80;66.90
54202;DHT22;40108;53.152;5.844;2023-06-04T15:44:13;16.60;67.70
54202;DHT22;40108;53.152;5.844;2023-06-04T15:46:39;16.60;67.90
54202;DHT22;40108;53.152;5.844;2023-06-04T15:49:06;16.50;67.30
54202;DHT22;40108;53.152;5.844;2023-06-04T15:51:38;16.40;68.00
54202;DHT22;40108;53.152;5.844;2023-06-04T15:54:03;16.40;67.90
54202;DHT22;40108;53.152;5.844;2023-06-04T15:56:33;16.40;68.50
54202;DHT22;40108;53.152;5.844;2023-06-04T16:02:02;16.30;68.40
54202;DHT22;40108;53.152;5.844;2023-06-04T16:04:28;16.30;68.60
54202;DHT22;40108;53.152;5.844;2023-06-04T16:06:53;16.30;68.80
54202;DHT22;40108;53.152;5.844;2023-06-04T16:09:19;16.20;69.40
54202;DHT22;40108;53.152;5.844;2023-06-04T16:11:44;16.20;68.80
54202;DHT22;40108;53.152;5.844;2023-06-04T16:14:10;16.10;69.60
54202;DHT22;40108;53.152;5.844;2023-06-04T16:16:36;16.10;69.80
54202;DHT22;40108;53.152;5.844;2023-06-04T16:19:02;16.10;69.50
54202;DHT22;40108;53.152;5.844;2023-06-04T16:21:27;16.10;69.00
54202;DHT22;40108;53.152;5.844;2023-06-04T16:23:53;16.00;69.10
54202;DHT22;40108;53.152;5.844;2023-06-04T16:26:19;15.90;69.20
54202;DHT22;40108;53.152;5.844;2023-06-04T16:28:45;15.90;69.40
54202;DHT22;40108;53.152;5.844;2023-06-04T16:31:11;15.90;69.80
54202;DHT22;40108;53.152;5.844;2023-06-04T16:33:37;15.90;70.30
54202;DHT22;40108;53.152;5.844;2023-06-04T16:36:03;15.90;69.50
54202;DHT22;40108;53.152;5.844;2023-06-04T16:38:28;15.90;69.40
54202;DHT22;40108;53.152;5.844;2023-06-04T16:40:55;15.80;69.40
54202;DHT22;40108;53.152;5.844;2023-06-04T16:43:22;15.70;69.60
54202;DHT22;40108;53.152;5.844;2023-06-04T16:45:48;15.70;69.60
54202;DHT22;40108;53.152;5.844;2023-06-04T16:48:13;15.60;70.00
54202;DHT22;40108;53.152;5.844;2023-06-04T16:50:39;15.60;70.70
54202;DHT22;40108;53.152;5.844;2023-06-04T16:53:05;15.60;71.10
54202;DHT22;40108;53.152;5.844;2023-06-04T16:55:33;15.60;70.70
54202;DHT22;40108;53.152;5.844;2023-06-04T16:58:00;15.60;70.70
54202;DHT22;40108;53.152;5.844;2023-06-04T17:00:26;15.60;71.00
54202;DHT22;40108;53.152;5.844;2023-06-04T17:02:55;15.60;70.60
54202;DHT22;40108;53.152;5.844;2023-06-04T17:05:21;15.60;71.40
54202;DHT22;40108;53.152;5.844;2023-06-04T17:07:47;15.50;71.10
54202;DHT22;40108;53.152;5.844;2023-06-04T17:10:13;15.50;71.20
54202;DHT22;40108;53.152;5.844;2023-06-04T17:12:39;15.50;71.10
54202;DHT22;40108;53.152;5.844;2023-06-04T17:15:06;15.50;72.20
54202;DHT22;40108;53.152;5.844;2023-06-04T17:17:32;15.50;72.20
54202;DHT22;40108;53.152;5.844;2023-06-04T17:19:58;15.50;71.80
54202;DHT22;40108;53.152;5.844;2023-06-04T17:29:30;15.40;71.10
54202;DHT22;40108;53.152;5.844;2023-06-04T17:31:56;15.40;71.40
54202;DHT22;40108;53.152;5.844;2023-06-04T17:38:07;15.20;71.80
54202;DHT22;40108;53.152;5.844;2023-06-04T17:40:54;15.10;72.00
54202;DHT22;40108;53.152;5.844;2023-06-04T17:43:20;15.00;72.60
54202;DHT22;40108;53.152;5.844;2023-06-04T17:45:54;15.10;73.20
54202;DHT22;40108;53.152;5.844;2023-06-04T17:48:25;15.10;73.10
54202;DHT22;40108;53.152;5.844;2023-06-04T17:50:51;15.10;73.20
54202;DHT22;40108;53.152;5.844;2023-06-04T17:53:21;15.10;73.20
54202;DHT22;40108;53.152;5.844;2023-06-04T17:56:00;15.00;73.20
54202;DHT22;40108;53.152;5.844;2023-06-04T18:01:46;14.90;73.40
54202;DHT22;40108;53.152;5.844;2023-06-04T18:04:15;14.70;73.30
54202;DHT22;40108;53.152;5.844;2023-06-04T18:06:44;14.60;73.60
54202;DHT22;40108;53.152;5.844;2023-06-04T18:09:10;14.50;74.20
54202;DHT22;40108;53.152;5.844;2023-06-04T18:15:22;14.40;74.40
54202;DHT22;40108;53.152;5.844;2023-06-04T18:17:50;14.40;74.90
54202;DHT22;40108;53.152;5.844;2023-06-04T18:20:15;14.40;75.20
54202;DHT22;40108;53.152;5.844;2023-06-04T18:22:41;14.30;75.40
54202;DHT22;40108;53.152;5.844;2023-06-04T18:25:07;14.30;75.60
54202;DHT22;40108;53.152;5.844;2023-06-04T18:28:14;14.20;75.80
54202;DHT22;40108;53.152;5.844;2023-06-04T18:37:25;13.90;76.20
54202;DHT22;40108;53.152;5.844;2023-06-04T18:46:48;13.70;76.90
54202;DHT22;40108;53.152;5.844;2023-06-04T18:52:55;13.50;77.50
54202;DHT22;40108;53.152;5.844;2023-06-04T18:55:21;13.40;77.50
54202;DHT22;40108;53.152;5.844;2023-06-04T18:57:47;13.40;77.90
54202;DHT22;40108;53.152;5.844;2023-06-04T19:00:13;13.30;78.30
54202;DHT22;40108;53.152;5.844;2023-06-04T19:02:39;13.30;78.20
54202;DHT22;40108;53.152;5.844;2023-06-04T19:08:46;13.20;78.30
54202;DHT22;40108;53.152;5.844;2023-06-04T19:11:11;13.10;78.70
54202;DHT22;40108;53.152;5.844;2023-06-04T19:13:37;13.10;78.90
54202;DHT22;40108;53.152;5.844;2023-06-04T19:16:03;13.10;78.90
54202;DHT22;40108;53.152;5.844;2023-06-04T19:18:29;13.10;79.40
54202;DHT22;40108;53.152;5.844;2023-06-04T19:21:00;13.00;79.40
54202;DHT22;40108;53.152;5.844;2023-06-04T19:23:26;12.90;79.20
54202;DHT22;40108;53.152;5.844;2023-06-04T19:25:54;12.90;79.40
54202;DHT22;40108;53.152;5.844;2023-06-04T19:28:20;12.90;79.20
54202;DHT22;40108;53.152;5.844;2023-06-04T19:30:46;12.80;79.30
54202;DHT22;40108;53.152;5.844;2023-06-04T19:33:14;12.80;79.30
54202;DHT22;40108;53.152;5.844;2023-06-04T19:35:40;12.80;79.70
54202;DHT22;40108;53.152;5.844;2023-06-04T19:38:06;12.70;79.70
54202;DHT22;40108;53.152;5.844;2023-06-04T19:40:32;12.70;80.50
54202;DHT22;40108;53.152;5.844;2023-06-04T19:42:59;12.60;80.10
54202;DHT22;40108;53.152;5.844;2023-06-04T19:45:24;12.60;80.30
54202;DHT22;40108;53.152;5.844;2023-06-04T19:47:51;12.50;80.40
54202;DHT22;40108;53.152;5.844;2023-06-04T19:50:17;12.40;81.00
54202;DHT22;40108;53.152;5.844;2023-06-04T19:52:45;12.40;80.70
54202;DHT22;40108;53.152;5.844;2023-06-04T19:55:34;12.30;80.80
54202;DHT22;40108;53.152;5.844;2023-06-04T19:58:08;12.30;81.00
54202;DHT22;40108;53.152;5.844;2023-06-04T20:00:44;12.30;81.20
54202;DHT22;40108;53.152;5.844;2023-06-04T20:03:38;12.20;81.30
54202;DHT22;40108;53.152;5.844;2023-06-04T20:06:07;12.10;81.30
54202;DHT22;40108;53.152;5.844;2023-06-04T20:08:40;12.10;81.60
54202;DHT22;40108;53.152;5.844;2023-06-04T20:11:11;12.10;81.20
54202;DHT22;40108;53.152;5.844;2023-06-04T20:14:01;12.10;81.30
54202;DHT22;40108;53.152;5.844;2023-06-04T20:16:32;12.10;81.10
54202;DHT22;40108;53.152;5.844;2023-06-04T20:19:22;12.00;81.70
54202;DHT22;40108;53.152;5.844;2023-06-04T20:21:50;12.00;81.30
54202;DHT22;40108;53.152;5.844;2023-06-04T20:24:41;11.90;81.70
54202;DHT22;40108;53.152;5.844;2023-06-04T20:27:18;11.90;81.30
54202;DHT22;40108;53.152;5.844;2023-06-04T20:30:01;11.80;81.60
54202;DHT22;40108;53.152;5.844;2023-06-04T20:32:45;11.80;81.50
54202;DHT22;40108;53.152;5.844;2023-06-04T20:35:37;11.70;81.60
54202;DHT22;40108;53.152;5.844;2023-06-04T20:38:13;11.70;81.60
54202;DHT22;40108;53.152;5.844;2023-06-04T20:47:02;11.60;81.60
54202;DHT22;40108;53.152;5.844;2023-06-04T20:50:01;11.60;81.80
54202;DHT22;40108;53.152;5.844;2023-06-04T20:52:54;11.50;82.10
54202;DHT22;40108;53.152;5.844;2023-06-04T20:55:46;11.40;82.50
54202;DHT22;40108;53.152;5.844;2023-06-04T20:58:27;11.40;82.30
54202;DHT22;40108;53.152;5.844;2023-06-04T21:01:21;11.30;82.50
54202;DHT22;40108;53.152;5.844;2023-06-04T21:04:00;11.30;82.60
54202;DHT22;40108;53.152;5.844;2023-06-04T21:06:31;11.30;82.70
54202;DHT22;40108;53.152;5.844;2023-06-04T21:08:59;11.20;82.90
54202;DHT22;40108;53.152;5.844;2023-06-04T21:11:36;11.20;83.20
54202;DHT22;40108;53.152;5.844;2023-06-04T21:14:02;11.10;83.40
54202;DHT22;40108;53.152;5.844;2023-06-04T21:16:33;11.10;83.50
54202;DHT22;40108;53.152;5.844;2023-06-04T21:19:24;11.10;83.60
54202;DHT22;40108;53.152;5.844;2023-06-04T21:33:17;10.90;83.80
